Time;durP1;ratioP1;P1;durP2;ratioP2;P2;SDS_P1;SDS_P2;PMS_P1;PMS_P2;Temp;Humidity;BMP_temperature;BMP_pressure;BME280_temperature;BME280_humidity;BME280_pressure;Samples;Min_cycle;Max_cycle;Signal;HPM_P1;HPM_P2
2021/03/02 00:02:01;;;;;;;19.90;12.97;;;3.20;99.90;;;;;;5027533;28;20490;-50
2021/03/02 00:04:30;;;;;;;14.70;13.23;;;3.00;99.90;;;;;;5052844;28;20570;-51
2021/03/02 00:06:58;;;;;;;18.67;12.83;;;3.00;99.90;;;;;;5042351;28;20489;-52
2021/03/02 00:09:27;;;;;;;21.43;12.70;;;3.10;99.90;;;;;;5034110;28;20498;-51
2021/03/02 00:11:55;;;;;;;14.10;11.23;;;3.00;99.90;;;;;;5025787;28;20536;-51
2021/03/02 00:14:23;;;;;;;18.97;11.37;;;2.90;99.90;;;;;;5032460;28;20484;-54
2021/03/02 00:16:56;;;;;;;12.93;11.40;;;2.90;99.90;;;;;;5025034;28;20477;-49
2021/03/02 00:19:33;;;;;;;15.10;12.80;;;2.90;99.90;;;;;;5024454;28;20820;-50
2021/03/02 00:22:09;;;;;;;21.80;12.93;;;2.90;99.90;;;;;;5024472;28;20494;-50
2021/03/02 00:24:38;;;;;;;18.57;12.57;;;2.90;99.90;;;;;;5033225;28;21064;-52
2021/03/02 00:27:06;;;;;;;12.93;11.63;;;2.80;99.90;;;;;;5044560;28;20511;-50
2021/03/02 00:29:39;;;;;;;18.97;12.53;;;2.80;99.90;;;;;;5043927;28;20880;-52
2021/03/02 00:32:07;;;;;;;16.37;14.77;;;2.90;99.90;;;;;;5032866;28;20488;-51
2021/03/02 00:34:38;;;;;;;23.60;15.17;;;2.90;99.90;;;;;;5035508;28;20894;-50
2021/03/02 00:37:07;;;;;;;18.40;13.00;;;3.00;99.90;;;;;;5034028;28;20900;-51
2021/03/02 00:39:34;;;;;;;15.23;12.90;;;2.80;99.90;;;;;;5027721;28;20510;-50
2021/03/02 00:42:03;;;;;;;14.40;12.90;;;2.80;99.90;;;;;;5041329;28;20900;-51
2021/03/02 00:44:30;;;;;;;16.80;11.43;;;2.70;99.90;;;;;;5048640;28;20534;-49
2021/03/02 00:46:58;;;;;;;15.07;13.53;;;2.60;99.90;;;;;;5048501;28;20516;-52
2021/03/02 00:49:26;;;;;;;17.17;12.03;;;2.90;99.90;;;;;;5062800;28;20500;-53
2021/03/02 00:51:54;;;;;;;14.03;12.43;;;2.70;99.90;;;;;;5062859;28;20497;-51
2021/03/02 00:54:21;;;;;;;14.73;11.70;;;2.60;99.90;;;;;;5048373;28;20516;-50
2021/03/02 00:56:49;;;;;;;12.80;11.27;;;2.60;99.90;;;;;;5063115;28;20467;-50
2021/03/02 00:59:18;;;;;;;17.10;11.13;;;2.50;99.90;;;;;;5047663;28;21066;-51
2021/03/02 01:01:47;;;;;;;14.83;11.60;;;2.50;99.90;;;;;;5062646;28;20508;-51
2021/03/02 01:04:16;;;;;;;14.43;11.33;;;2.50;99.90;;;;;;5060241;28;20827;-49
2021/03/02 01:06:44;;;;;;;18.13;12.07;;;2.40;99.90;;;;;;5041032;28;20477;-50
2021/03/02 01:09:12;;;;;;;12.93;11.63;;;2.40;99.90;;;;;;5039666;28;20462;-49
2021/03/02 01:11:44;;;;;;;17.20;13.53;;;2.50;99.90;;;;;;5045950;28;20489;-50
2021/03/02 01:14:13;;;;;;;18.20;12.77;;;2.70;99.90;;;;;;5048412;28;20546;-49
2021/03/02 01:16:41;;;;;;;19.77;13.90;;;2.80;99.90;;;;;;5047932;28;20474;-52
2021/03/02 01:19:09;;;;;;;16.83;12.23;;;2.70;99.90;;;;;;5047345;28;20500;-54
2021/03/02 01:21:37;;;;;;;17.53;11.47;;;2.50;99.90;;;;;;5047148;28;21027;-52
2021/03/02 01:24:06;;;;;;;16.33;11.57;;;2.40;99.90;;;;;;5047904;28;20480;-49
2021/03/02 01:26:33;;;;;;;13.17;11.73;;;2.40;99.90;;;;;;5047571;28;20485;-54
2021/03/02 01:29:00;;;;;;;13.13;11.77;;;2.40;99.90;;;;;;5047713;28;20526;-50
2021/03/02 01:31:28;;;;;;;21.23;14.77;;;2.50;99.90;;;;;;5032452;28;20479;-49
2021/03/02 01:33:55;;;;;;;21.23;15.37;;;2.90;99.90;;;;;;5024359;28;20494;-50
2021/03/02 01:36:23;;;;;;;21.50;17.03;;;3.10;99.90;;;;;;5025301;28;20491;-50
2021/03/02 01:38:51;;;;;;;15.87;14.27;;;2.70;99.90;;;;;;5027382;28;20475;-50
2021/03/02 01:41:19;;;;;;;15.53;12.73;;;2.60;99.90;;;;;;5027127;28;20487;-51
2021/03/02 01:43:46;;;;;;;13.70;12.20;;;2.40;99.90;;;;;;5028004;28;20525;-51
2021/03/02 01:46:14;;;;;;;15.73;12.40;;;2.40;99.90;;;;;;5047372;28;20844;-51
2021/03/02 01:49:07;;;;;;;22.37;14.93;;;2.70;99.90;;;;;;5046940;28;20563;-49
2021/03/02 01:51:35;;;;;;;16.13;13.17;;;2.40;99.90;;;;;;5046898;28;20572;-50
2021/03/02 01:54:04;;;;;;;18.67;12.07;;;2.30;99.90;;;;;;5046726;28;20471;-50
2021/03/02 01:56:33;;;;;;;14.60;12.83;;;2.40;99.90;;;;;;5046623;28;20537;-49
2021/03/02 01:59:05;;;;;;;15.77;12.70;;;2.40;99.90;;;;;;5047085;28;20909;-50
2021/03/02 02:01:33;;;;;;;13.57;11.37;;;2.30;99.90;;;;;;5029595;28;20475;-50
2021/03/02 02:04:09;;;;;;;14.83;11.63;;;2.40;99.90;;;;;;5020461;28;20490;-49
2021/03/02 02:06:42;;;;;;;16.67;13.30;;;2.40;99.90;;;;;;5032296;28;21195;-50
2021/03/02 02:09:22;;;;;;;21.07;16.23;;;2.60;99.90;;;;;;5026518;28;20947;-49
2021/03/02 02:11:57;;;;;;;19.57;13.30;;;2.70;99.90;;;;;;5026591;28;20971;-50
2021/03/02 02:14:38;;;;;;;16.90;12.70;;;2.30;99.90;;;;;;5027287;28;20569;-52
2021/03/02 02:17:10;;;;;;;13.43;12.03;;;2.20;99.90;;;;;;5026919;28;20484;-49
2021/03/02 02:19:45;;;;;;;19.07;11.73;;;2.10;99.90;;;;;;5025869;28;20503;-50
2021/03/02 02:22:27;;;;;;;23.97;11.13;;;2.00;99.90;;;;;;5020281;28;20485;-49
2021/03/02 02:25:11;;;;;;;21.30;12.30;;;1.90;99.90;;;;;;5026176;28;20810;-50
2021/03/02 02:27:41;;;;;;;12.60;10.67;;;1.90;99.90;;;;;;5026758;28;20581;-53
2021/03/02 02:30:11;;;;;;;16.60;10.73;;;1.80;99.90;;;;;;5025663;28;20491;-51
2021/03/02 02:32:39;;;;;;;16.93;11.00;;;1.70;99.90;;;;;;5027858;28;20473;-50
2021/03/02 02:35:09;;;;;;;16.53;10.23;;;1.70;99.90;;;;;;5030151;28;20995;-50
2021/03/02 02:37:39;;;;;;;13.43;11.67;;;1.80;99.90;;;;;;5046409;28;21235;-49
2021/03/02 02:40:08;;;;;;;16.90;11.73;;;1.90;99.90;;;;;;5045514;28;20490;-49
2021/03/02 02:42:37;;;;;;;17.57;10.53;;;1.70;99.90;;;;;;5045693;28;20489;-51
2021/03/02 02:45:08;;;;;;;13.13;10.80;;;1.70;99.90;;;;;;5030046;28;20583;-51
2021/03/02 02:47:36;;;;;;;15.53;9.70;;;1.70;99.90;;;;;;5026452;28;20535;-49
2021/03/02 02:50:06;;;;;;;15.57;12.60;;;1.90;99.90;;;;;;5025830;28;20847;-51
2021/03/02 02:52:34;;;;;;;13.27;11.73;;;1.90;99.90;;;;;;5033998;28;21058;-49
2021/03/02 02:55:04;;;;;;;15.47;11.07;;;1.80;99.90;;;;;;5057622;28;20558;-49
2021/03/02 02:57:40;;;;;;;15.23;13.63;;;1.90;99.90;;;;;;5065833;28;21012;-51
2021/03/02 03:00:13;;;;;;;16.93;12.47;;;1.90;99.90;;;;;;5044171;28;20582;-51
2021/03/02 03:02:50;;;;;;;21.60;14.87;;;2.20;99.90;;;;;;5034200;28;20540;-49
2021/03/02 03:05:19;;;;;;;15.97;12.07;;;2.10;99.90;;;;;;5040183;28;20507;-49
2021/03/02 03:07:52;;;;;;;16.97;14.00;;;2.10;99.90;;;;;;5039805;28;20472;-50
2021/03/02 03:10:25;;;;;;;15.43;13.40;;;2.00;99.90;;;;;;5044883;28;20494;-50
2021/03/02 03:12:57;;;;;;;15.40;12.57;;;1.90;99.90;;;;;;5045875;28;20502;-51
2021/03/02 03:15:27;;;;;;;14.93;13.33;;;2.10;99.90;;;;;;5045697;28;20885;-49
2021/03/02 03:18:08;;;;;;;13.82;12.39;;;2.00;99.90;;;;;;1605489;28;10023317;-51
2021/03/02 03:20:36;;;;;;;16.37;14.67;;;2.30;99.90;;;;;;4677801;28;10000894;-51
2021/03/02 03:23:06;;;;;;;19.60;14.70;;;2.10;99.90;;;;;;5035155;28;20478;-51
2021/03/02 03:25:34;;;;;;;14.60;11.90;;;2.10;99.90;;;;;;5028625;28;20573;-54
2021/03/02 03:28:06;;;;;;;17.60;12.37;;;1.90;99.90;;;;;;5033363;28;20476;-49
2021/03/02 03:30:36;;;;;;;15.47;13.70;;;2.00;99.90;;;;;;5035454;28;20540;-49
2021/03/02 03:33:09;;;;;;;31.80;13.03;;;2.10;99.90;;;;;;5028808;28;20486;-50
2021/03/02 03:35:39;;;;;;;16.10;12.50;;;1.80;99.90;;;;;;5032778;28;20577;-50
2021/03/02 03:38:06;;;;;;;13.00;11.70;;;1.70;99.90;;;;;;5045320;28;20547;-51
2021/03/02 03:40:35;;;;;;;13.63;12.23;;;1.70;99.90;;;;;;5044557;28;20565;-49
2021/03/02 03:43:03;;;;;;;13.43;12.07;;;1.80;99.90;;;;;;5044732;28;20486;-51
2021/03/02 03:45:30;;;;;;;14.03;11.40;;;1.70;99.90;;;;;;5045393;28;20508;-50
2021/03/02 03:47:59;;;;;;;18.07;11.63;;;1.70;99.90;;;;;;5045290;28;20585;-50
2021/03/02 03:50:27;;;;;;;17.67;11.10;;;1.70;99.90;;;;;;5044321;28;20967;-49
2021/03/02 03:53:00;;;;;;;18.77;12.23;;;1.60;99.90;;;;;;5039290;28;20491;-50
2021/03/02 03:55:32;;;;;;;16.53;10.87;;;1.70;99.90;;;;;;5052123;28;21205;-49
2021/03/02 03:58:00;;;;;;;16.73;11.67;;;1.70;99.90;;;;;;5042795;28;20581;-50
2021/03/02 04:00:29;;;;;;;20.50;14.23;;;1.90;99.90;;;;;;5035127;28;20495;-50
2021/03/02 04:02:56;;;;;;;16.23;13.07;;;1.90;99.90;;;;;;5034848;28;20475;-49
2021/03/02 04:05:25;;;;;;;19.00;14.13;;;2.00;99.90;;;;;;5036116;28;20464;-50
2021/03/02 04:07:53;;;;;;;18.00;13.33;;;2.00;99.90;;;;;;5045093;28;20515;-49
2021/03/02 04:10:21;;;;;;;16.00;12.17;;;1.90;99.90;;;;;;5044171;28;20843;-50
2021/03/02 04:12:48;;;;;;;16.47;13.40;;;1.80;99.90;;;;;;5045055;28;21053;-51
2021/03/02 04:15:27;;;;;;;19.80;13.40;;;1.80;99.90;;;;;;5044678;28;20508;-49
2021/03/02 04:18:00;;;;;;;18.87;14.07;;;2.10;99.90;;;;;;5044540;28;20512;-49
2021/03/02 04:20:28;;;;;;;19.27;13.40;;;2.00;99.90;;;;;;5036389;28;20554;-49
2021/03/02 04:22:57;;;;;;;17.80;12.87;;;1.90;99.90;;;;;;5036593;28;20515;-50
2021/03/02 04:25:24;;;;;;;18.57;12.80;;;2.10;99.90;;;;;;5033835;28;20562;-50
2021/03/02 04:27:52;;;;;;;21.47;14.57;;;2.00;99.90;;;;;;5049018;28;20475;-50
2021/03/02 04:30:20;;;;;;;22.93;14.13;;;2.00;99.90;;;;;;5027930;28;21087;-49
2021/03/02 04:32:48;;;;;;;19.20;12.73;;;1.90;99.90;;;;;;5045134;28;20477;-50
2021/03/02 04:35:15;;;;;;;19.47;12.17;;;1.80;99.90;;;;;;5045087;28;20891;-50
2021/03/02 04:37:44;;;;;;;19.20;11.10;;;1.60;99.90;;;;;;5044477;28;20501;-49
2021/03/02 04:40:13;;;;;;;15.37;11.13;;;1.50;99.90;;;;;;5044256;28;20497;-49
2021/03/02 04:42:41;;;;;;;14.57;10.97;;;1.50;99.90;;;;;;5044742;28;20573;-50
2021/03/02 04:45:11;;;;;;;17.63;11.97;;;1.50;99.90;;;;;;5045054;28;20572;-50
2021/03/02 04:47:41;;;;;;;15.50;10.97;;;1.40;99.90;;;;;;5044657;28;20893;-50
2021/03/02 04:50:11;;;;;;;20.63;12.27;;;1.40;99.90;;;;;;5034025;28;20467;-49
2021/03/02 04:52:38;;;;;;;16.23;12.60;;;1.40;99.90;;;;;;5044578;28;20910;-50
2021/03/02 04:55:09;;;;;;;20.43;13.30;;;1.50;99.90;;;;;;5033694;28;20481;-50
2021/03/02 04:57:36;;;;;;;15.90;11.50;;;1.60;99.90;;;;;;5033892;28;20538;-49
2021/03/02 05:00:06;;;;;;;20.03;13.77;;;1.60;99.90;;;;;;5024358;28;20534;-50
2021/03/02 05:02:33;;;;;;;19.17;12.87;;;1.80;99.90;;;;;;5024119;28;20473;-49
2021/03/02 05:05:01;;;;;;;20.77;14.70;;;1.60;99.90;;;;;;5024804;28;20503;-51
2021/03/02 05:07:28;;;;;;;18.13;12.73;;;1.70;99.90;;;;;;5043945;28;20950;-49
2021/03/02 05:09:55;;;;;;;20.03;13.03;;;1.50;99.90;;;;;;5043901;28;20483;-52
2021/03/02 05:12:24;;;;;;;21.73;12.10;;;1.40;99.90;;;;;;5043431;28;20914;-50
2021/03/02 05:14:54;;;;;;;21.20;12.37;;;1.30;99.90;;;;;;5044706;28;20852;-54
2021/03/02 05:17:22;;;;;;;22.20;13.20;;;1.60;99.90;;;;;;5040811;28;20570;-49
2021/03/02 05:19:49;;;;;;;18.70;13.40;;;1.30;99.90;;;;;;5033319;28;21049;-51
2021/03/02 05:22:17;;;;;;;20.70;13.27;;;1.30;99.90;;;;;;5036805;28;22129;-49
2021/03/02 05:24:44;;;;;;;16.23;11.10;;;1.30;99.90;;;;;;5037478;28;20472;-50
2021/03/02 05:27:11;;;;;;;21.03;13.73;;;1.30;99.90;;;;;;5030873;28;20495;-52
2021/03/02 05:29:40;;;;;;;18.80;13.50;;;1.40;99.90;;;;;;5033003;28;20567;-49
2021/03/02 05:32:07;;;;;;;20.57;12.70;;;1.40;99.90;;;;;;5047079;28;20578;-50
2021/03/02 05:34:34;;;;;;;21.90;13.90;;;1.40;99.90;;;;;;5048249;28;20933;-49
2021/03/02 05:37:02;;;;;;;19.20;13.50;;;1.40;99.90;;;;;;5036987;28;20691;-49
2021/03/02 05:39:30;;;;;;;20.33;13.63;;;1.40;99.90;;;;;;5037916;28;20570;-49
2021/03/02 05:41:57;;;;;;;26.97;13.00;;;1.40;99.90;;;;;;5047715;28;20867;-50
2021/03/02 05:44:25;;;;;;;20.23;12.97;;;1.20;99.90;;;;;;5047552;28;20479;-51
2021/03/02 05:46:54;;;;;;;21.20;12.67;;;1.20;99.90;;;;;;5035301;28;20525;-51
2021/03/02 05:49:27;;;;;;;20.03;13.33;;;1.20;99.90;;;;;;5018232;28;20487;-54
2021/03/02 05:51:55;;;;;;;19.80;13.47;;;1.10;99.90;;;;;;5048286;28;20472;-49
2021/03/02 05:54:23;;;;;;;21.50;13.50;;;1.20;99.90;;;;;;5033562;28;20561;-50
2021/03/02 05:56:51;;;;;;;20.73;12.97;;;1.30;99.90;;;;;;5034956;28;20461;-52
2021/03/02 05:59:18;;;;;;;27.57;15.67;;;1.30;99.90;;;;;;5036297;28;20544;-50
2021/03/02 06:01:47;;;;;;;32.53;15.17;;;1.40;99.90;;;;;;5036411;28;20482;-52
2021/03/02 06:04:16;;;;;;;28.80;16.73;;;1.50;99.90;;;;;;5037532;28;20522;-49
2021/03/02 06:06:43;;;;;;;31.20;16.50;;;1.50;99.90;;;;;;5034855;28;20880;-52
2021/03/02 06:09:11;;;;;;;32.47;18.07;;;1.40;99.90;;;;;;5026884;28;20997;-50
2021/03/02 06:11:38;;;;;;;42.73;20.00;;;1.40;99.90;;;;;;5026559;28;20586;-49
2021/03/02 06:14:20;;;;;;;41.03;21.30;;;1.90;99.90;;;;;;5035259;28;20528;-51
2021/03/02 06:16:57;;;;;;;43.40;20.37;;;1.80;99.90;;;;;;5039018;28;20565;-51
2021/03/02 06:19:44;;;;;;;35.77;17.60;;;1.50;99.90;;;;;;5037568;28;20502;-53
2021/03/02 06:22:35;;;;;;;37.23;19.77;;;1.50;99.90;;;;;;5032484;28;20470;-50
2021/03/02 06:25:06;;;;;;;35.13;19.17;;;1.30;99.90;;;;;;5035269;28;20491;-50
2021/03/02 06:27:34;;;;;;;29.83;17.03;;;1.20;99.90;;;;;;5042325;28;20487;-51
2021/03/02 06:30:10;;;;;;;27.97;16.77;;;1.10;99.90;;;;;;5041692;28;20849;-52
2021/03/02 06:32:39;;;;;;;29.27;16.33;;;1.10;99.90;;;;;;5045930;28;20486;-49
2021/03/02 06:35:11;;;;;;;28.07;16.57;;;1.00;99.90;;;;;;5043553;28;20485;-52
2021/03/02 06:37:43;;;;;;;25.37;15.60;;;1.00;99.90;;;;;;5045119;28;20487;-49
2021/03/02 06:40:13;;;;;;;23.17;14.47;;;1.00;99.90;;;;;;5045078;28;20563;-49
2021/03/02 06:42:42;;;;;;;22.90;13.67;;;1.00;99.90;;;;;;5035702;28;20507;-51
2021/03/02 06:45:13;;;;;;;18.67;14.17;;;0.90;99.90;;;;;;5043066;28;20470;-50
2021/03/02 06:47:45;;;;;;;19.37;12.93;;;0.90;99.90;;;;;;5040820;28;20469;-52
2021/03/02 06:50:24;;;;;;;18.60;12.80;;;1.00;99.90;;;;;;5039241;28;20478;-49
2021/03/02 06:52:52;;;;;;;20.13;12.73;;;0.90;99.90;;;;;;5035032;28;20490;-49
2021/03/02 06:55:26;;;;;;;17.67;12.77;;;0.90;99.90;;;;;;5039512;28;20555;-52
2021/03/02 06:58:16;;;;;;;23.77;13.83;;;0.90;99.90;;;;;;5035973;28;20515;-49
2021/03/02 07:00:49;;;;;;;21.90;13.17;;;0.90;99.90;;;;;;5038237;28;20524;-50
2021/03/02 07:03:36;;;;;;;18.57;13.07;;;0.90;99.90;;;;;;5026292;28;20535;-51
2021/03/02 07:06:07;;;;;;;19.13;12.70;;;0.90;99.90;;;;;;5026089;28;20523;-51
2021/03/02 07:08:37;;;;;;;18.20;12.57;;;0.90;99.90;;;;;;5028835;28;20483;-49
2021/03/02 07:11:06;;;;;;;17.03;12.67;;;0.90;99.90;;;;;;5023447;28;20995;-50
2021/03/02 07:13:33;;;;;;;17.67;13.00;;;1.00;99.90;;;;;;5023217;28;20535;-49
2021/03/02 07:16:03;;;;;;;19.90;13.40;;;0.90;99.90;;;;;;5025186;28;20829;-48
2021/03/02 07:18:31;;;;;;;17.23;12.57;;;1.00;99.90;;;;;;5017222;28;20485;-52
2021/03/02 07:21:00;;;;;;;20.60;13.17;;;1.00;99.90;;;;;;5015256;28;20543;-50
2021/03/02 07:23:31;;;;;;;21.20;13.73;;;1.10;99.90;;;;;;5020301;28;20481;-48
2021/03/02 07:26:03;;;;;;;21.87;13.77;;;1.10;99.90;;;;;;5013180;28;20982;-49
2021/03/02 07:28:36;;;;;;;17.67;13.20;;;1.20;99.90;;;;;;5025076;28;20591;-49
2021/03/02 07:31:03;;;;;;;19.03;13.07;;;1.20;99.90;;;;;;5024512;28;20542;-50
2021/03/02 07:33:31;;;;;;;20.23;13.47;;;1.20;99.90;;;;;;5019755;28;20479;-49
2021/03/02 07:36:00;;;;;;;18.00;13.13;;;1.20;99.90;;;;;;5028695;28;20480;-48
2021/03/02 07:38:29;;;;;;;17.73;13.23;;;1.30;99.90;;;;;;5024307;28;20602;-49
2021/03/02 07:40:57;;;;;;;20.03;14.27;;;1.40;99.90;;;;;;5018938;28;20480;-48
2021/03/02 07:43:34;;;;;;;18.03;12.70;;;1.40;99.90;;;;;;5024173;28;20531;-50
2021/03/02 07:46:19;;;;;;;17.67;13.50;;;1.50;99.90;;;;;;5025598;28;20511;-48
2021/03/02 07:48:46;;;;;;;18.90;13.23;;;1.70;99.90;;;;;;5032176;28;20965;-49
2021/03/02 07:51:21;;;;;;;16.77;13.20;;;1.80;99.90;;;;;;5034990;28;20473;-50
2021/03/02 07:53:52;;;;;;;18.17;13.40;;;1.90;99.90;;;;;;5042833;28;20479;-49
2021/03/02 07:56:28;;;;;;;18.50;12.67;;;2.00;99.90;;;;;;5039797;28;20556;-48
2021/03/02 07:59:18;;;;;;;17.40;13.53;;;2.10;99.90;;;;;;5021811;28;20507;-49
2021/03/02 08:02:14;;;;;;;18.20;13.43;;;2.30;99.90;;;;;;5016029;28;21049;-48
2021/03/02 08:04:47;;;;;;;18.17;13.50;;;2.40;99.90;;;;;;5026782;28;20882;-50
2021/03/02 08:07:28;;;;;;;21.97;13.53;;;2.60;99.90;;;;;;5043902;28;20542;-49
2021/03/02 08:09:58;;;;;;;18.27;13.40;;;2.80;99.90;;;;;;5042548;28;20576;-50
2021/03/02 08:12:31;;;;;;;17.60;13.60;;;3.00;99.90;;;;;;5060272;28;20835;-49
2021/03/02 08:15:01;;;;;;;17.93;13.67;;;3.20;99.90;;;;;;5039437;28;20483;-51
2021/03/02 08:17:33;;;;;;;18.30;13.33;;;3.30;99.90;;;;;;5035445;28;20888;-50
2021/03/02 08:20:04;;;;;;;19.17;13.07;;;3.40;99.90;;;;;;5030323;28;20488;-51
2021/03/02 08:22:50;;;;;;;17.03;13.63;;;3.60;99.90;;;;;;5034041;28;21006;-51
2021/03/02 08:25:36;;;;;;;19.63;14.90;;;3.80;99.90;;;;;;5042435;28;20530;-52
2021/03/02 08:28:09;;;;;;;18.67;14.07;;;3.90;99.90;;;;;;5030024;28;20514;-50
2021/03/02 08:30:42;;;;;;;18.17;13.67;;;4.10;99.90;;;;;;5037591;28;20485;-50
2021/03/02 08:33:14;;;;;;;19.40;14.53;;;4.30;99.90;;;;;;5028590;28;20898;-48
2021/03/02 08:35:43;;;;;;;17.50;13.63;;;4.50;99.90;;;;;;5028789;28;20891;-49
2021/03/02 08:38:14;;;;;;;18.67;14.67;;;4.70;99.90;;;;;;5041529;28;20476;-51
2021/03/02 08:40:46;;;;;;;21.43;14.40;;;4.90;99.90;;;;;;5043278;28;20528;-49
2021/03/02 08:43:19;;;;;;;21.17;14.67;;;5.10;99.90;;;;;;5044061;28;20466;-48
2021/03/02 08:45:50;;;;;;;19.53;14.97;;;5.30;99.90;;;;;;5039598;28;20478;-52
2021/03/02 08:48:26;;;;;;;19.30;14.37;;;5.50;99.90;;;;;;5034956;28;20480;-48
2021/03/02 08:50:57;;;;;;;21.00;15.23;;;5.60;99.90;;;;;;5032416;28;20481;-50
2021/03/02 08:53:37;;;;;;;21.00;15.40;;;5.50;99.90;;;;;;5035779;28;20525;-48
2021/03/02 08:56:08;;;;;;;23.63;16.37;;;5.60;99.90;;;;;;5032793;28;20699;-48
2021/03/02 08:58:38;;;;;;;19.53;15.33;;;5.90;99.90;;;;;;5034099;28;20524;-49
2021/03/02 09:01:09;;;;;;;20.57;15.93;;;6.20;99.90;;;;;;5034150;28;20541;-49
2021/03/02 09:03:39;;;;;;;20.23;15.70;;;6.50;99.90;;;;;;5040294;28;20249;-49
2021/03/02 09:06:20;;;;;;;19.70;15.97;;;6.70;99.90;;;;;;5043250;28;20262;-49
2021/03/02 09:08:56;;;;;;;20.13;15.53;;;7.00;99.90;;;;;;5029102;28;20263;-49
2021/03/02 09:11:29;;;;;;;19.33;15.30;;;7.30;99.90;;;;;;5039611;28;20228;-46
2021/03/02 09:13:58;;;;;;;19.40;15.40;;;7.50;99.90;;;;;;5034855;28;20232;-49
2021/03/02 09:16:45;;;;;;;20.90;16.53;;;7.90;99.90;;;;;;5035231;28;20236;-49
2021/03/02 09:19:22;;;;;;;21.80;16.73;;;8.20;99.90;;;;;;5037086;28;20245;-48
2021/03/02 09:21:55;;;;;;;26.00;18.87;;;8.40;99.90;;;;;;5037699;28;20232;-48
2021/03/02 09:24:40;;;;;;;24.93;17.40;;;8.60;99.90;;;;;;5023314;28;20240;-47
2021/03/02 09:27:10;;;;;;;23.13;17.27;;;8.90;99.90;;;;;;5027903;28;20264;-47
2021/03/02 09:29:42;;;;;;;24.30;17.97;;;9.00;99.90;;;;;;5027365;28;20232;-47
2021/03/02 09:32:12;;;;;;;22.77;17.87;;;9.20;99.90;;;;;;5022552;28;20319;-50
2021/03/02 09:34:42;;;;;;;21.40;17.10;;;9.30;99.90;;;;;;5027999;28;20313;-49
2021/03/02 09:37:12;;;;;;;21.97;17.47;;;9.40;99.90;;;;;;5042036;28;20265;-47
2021/03/02 09:39:41;;;;;;;20.80;16.67;;;9.60;99.90;;;;;;5040800;28;20564;-48
2021/03/02 09:42:17;;;;;;;21.07;16.73;;;9.70;99.90;;;;;;5038286;28;20759;-48
2021/03/02 09:44:51;;;;;;;18.90;16.13;;;9.60;99.90;;;;;;5030880;28;20233;-47
2021/03/02 09:47:24;;;;;;;19.80;16.70;;;9.60;99.90;;;;;;5036593;28;20619;-48
2021/03/02 09:49:58;;;;;;;19.60;15.33;;;9.50;99.90;;;;;;5034833;28;20252;-48
2021/03/02 09:52:44;;;;;;;20.93;16.70;;;9.80;99.90;;;;;;5035081;28;20340;-46
2021/03/02 09:55:32;;;;;;;21.33;16.57;;;9.90;99.90;;;;;;5027664;28;20318;-50
2021/03/02 09:58:07;;;;;;;18.33;15.60;;;9.90;99.90;;;;;;5027083;28;20754;-48
2021/03/02 10:00:41;;;;;;;20.87;16.50;;;10.10;99.90;;;;;;5026612;28;20790;-47
2021/03/02 10:03:12;;;;;;;18.37;16.37;;;10.10;99.90;;;;;;5027349;28;20323;-48
2021/03/02 10:05:43;;;;;;;19.07;16.30;;;10.30;99.90;;;;;;5047325;28;20290;-48
2021/03/02 10:08:32;;;;;;;20.33;16.10;;;10.50;99.90;;;;;;5040142;28;20378;-48
2021/03/02 10:11:03;;;;;;;21.97;17.50;;;10.70;99.90;;;;;;5036716;28;20749;-47
2021/03/02 10:13:34;;;;;;;23.10;18.57;;;10.80;99.90;;;;;;5035903;28;20237;-48
2021/03/02 10:16:28;;;;;;;22.90;18.40;;;11.00;99.90;;;;;;5030392;28;20758;-48
2021/03/02 10:18:59;;;;;;;23.87;18.53;;;11.00;99.90;;;;;;5026739;28;20257;-48
2021/03/02 10:21:29;;;;;;;22.50;18.23;;;10.70;99.90;;;;;;5026118;28;20245;-46
2021/03/02 10:23:58;;;;;;;26.40;19.80;;;10.80;99.90;;;;;;5026938;28;20435;-47
2021/03/02 10:26:29;;;;;;;24.43;20.23;;;10.60;99.90;;;;;;5028836;28;20239;-47
2021/03/02 10:28:58;;;;;;;24.60;19.27;;;10.80;99.90;;;;;;5026663;28;20257;-48
2021/03/02 10:31:26;;;;;;;23.50;18.23;;;11.00;99.90;;;;;;5030473;28;20231;-49
2021/03/02 10:33:54;;;;;;;27.67;20.00;;;11.10;99.90;;;;;;5026821;28;20253;-47
2021/03/02 10:36:25;;;;;;;25.97;20.10;;;11.00;99.90;;;;;;5041705;28;20245;-48
2021/03/02 10:38:55;;;;;;;25.67;20.30;;;10.70;99.90;;;;;;5041405;28;20727;-48
2021/03/02 10:41:23;;;;;;;25.60;20.43;;;10.90;99.90;;;;;;5053057;28;20263;-47
2021/03/02 10:43:53;;;;;;;28.40;21.40;;;11.30;99.90;;;;;;5036039;28;20321;-47
2021/03/02 10:46:23;;;;;;;25.50;19.30;;;11.50;99.90;;;;;;5030891;28;20241;-51
2021/03/02 10:48:51;;;;;;;25.70;19.53;;;11.60;99.90;;;;;;5025825;28;20640;-48
2021/03/02 10:51:19;;;;;;;28.80;22.10;;;11.80;99.90;;;;;;5026518;28;20237;-46
2021/03/02 10:53:47;;;;;;;29.57;21.50;;;12.30;99.90;;;;;;5026339;28;20296;-47
2021/03/02 10:56:16;;;;;;;27.17;21.03;;;12.40;99.90;;;;;;5025990;28;20246;-47
2021/03/02 10:58:45;;;;;;;25.63;20.80;;;12.70;99.90;;;;;;5025381;28;20324;-47
2021/03/02 11:01:13;;;;;;;28.20;21.20;;;12.90;99.90;;;;;;5025012;28;20321;-49
2021/03/02 11:03:42;;;;;;;27.50;22.00;;;12.80;99.90;;;;;;5026523;28;20628;-46
2021/03/02 11:06:11;;;;;;;27.17;19.97;;;13.00;99.90;;;;;;5024005;28;20234;-47
2021/03/02 11:08:58;;;;;;;26.93;21.97;;;12.80;99.90;;;;;;5037700;28;20595;-47
2021/03/02 11:11:25;;;;;;;28.50;22.77;;;13.20;99.90;;;;;;5018054;28;20330;-48
2021/03/02 11:13:53;;;;;;;28.80;23.33;;;13.30;99.90;;;;;;5040999;28;20302;-47
2021/03/02 11:16:22;;;;;;;30.33;24.23;;;13.40;99.90;;;;;;5024844;28;20260;-47
2021/03/02 11:18:54;;;;;;;33.77;25.67;;;13.50;99.90;;;;;;5020356;28;20247;-48
2021/03/02 11:21:22;;;;;;;35.63;25.77;;;13.10;99.90;;;;;;5042522;28;20284;-47
2021/03/02 11:23:49;;;;;;;32.70;25.97;;;13.00;99.90;;;;;;5017525;28;20519;-46
2021/03/02 11:26:21;;;;;;;30.47;25.47;;;13.10;99.90;;;;;;5016645;28;20262;-46
2021/03/02 11:28:48;;;;;;;33.50;26.10;;;13.20;99.90;;;;;;5018843;28;20256;-47
2021/03/02 11:31:15;;;;;;;31.13;25.30;;;13.30;99.90;;;;;;5014641;28;20267;-47
2021/03/02 11:33:43;;;;;;;33.27;26.73;;;13.30;99.90;;;;;;5013634;28;20244;-46
2021/03/02 11:36:18;;;;;;;33.80;26.20;;;13.10;99.90;;;;;;5051229;28;20598;-46
2021/03/02 11:38:46;;;;;;;35.50;26.37;;;13.20;99.90;;;;;;5036227;28;20708;-48
2021/03/02 11:41:17;;;;;;;33.77;26.50;;;13.40;99.90;;;;;;5037371;28;20325;-46
2021/03/02 11:43:44;;;;;;;32.53;26.57;;;13.60;99.90;;;;;;5035124;28;20317;-46
2021/03/02 11:46:12;;;;;;;34.07;25.23;;;13.80;99.90;;;;;;5035957;28;20789;-46
2021/03/02 11:48:39;;;;;;;37.73;26.63;;;13.90;99.90;;;;;;5029579;28;20298;-50
2021/03/02 11:51:06;;;;;;;41.83;26.57;;;13.80;99.90;;;;;;5027225;28;20766;-47
2021/03/02 11:53:36;;;;;;;34.30;26.20;;;13.50;99.90;;;;;;5018985;28;20248;-47
2021/03/02 11:56:04;;;;;;;38.10;27.27;;;13.40;99.90;;;;;;5046671;28;20314;-47
2021/03/02 11:58:31;;;;;;;35.07;25.33;;;13.60;99.90;;;;;;5039470;28;20263;-49
2021/03/02 12:01:01;;;;;;;32.40;24.97;;;13.60;99.90;;;;;;5033607;28;20251;-46
2021/03/02 12:03:32;;;;;;;33.20;23.97;;;13.30;99.90;;;;;;5035475;28;20897;-48
2021/03/02 12:06:00;;;;;;;39.27;25.63;;;13.10;99.90;;;;;;5033721;28;20559;-49
2021/03/02 12:08:27;;;;;;;34.10;24.43;;;12.80;99.90;;;;;;5034787;28;20243;-48
2021/03/02 12:10:56;;;;;;;30.53;23.37;;;12.80;99.90;;;;;;5032973;28;20239;-46
2021/03/02 12:13:23;;;;;;;35.77;23.60;;;12.90;99.90;;;;;;5033971;28;20249;-47
2021/03/02 12:15:50;;;;;;;35.03;23.97;;;13.00;99.90;;;;;;5042138;28;20653;-47
2021/03/02 12:18:18;;;;;;;33.10;21.77;;;13.00;99.90;;;;;;5038749;28;20233;-49
2021/03/02 12:20:48;;;;;;;31.87;22.97;;;13.00;99.90;;;;;;5044947;28;20246;-50
2021/03/02 12:23:17;;;;;;;31.70;23.20;;;13.00;99.90;;;;;;5035515;28;20263;-49
2021/03/02 12:25:45;;;;;;;30.00;21.67;;;13.20;99.90;;;;;;5023794;28;20249;-48
2021/03/02 12:28:13;;;;;;;29.43;20.60;;;13.20;99.90;;;;;;5015591;28;20333;-47
2021/03/02 12:30:40;;;;;;;28.53;20.03;;;13.10;99.90;;;;;;5027729;28;20323;-48
2021/03/02 12:33:09;;;;;;;29.83;20.37;;;13.20;99.90;;;;;;5017066;28;20228;-47
2021/03/02 12:35:37;;;;;;;27.73;19.43;;;13.30;99.90;;;;;;5013855;28;20264;-46
2021/03/02 12:38:05;;;;;;;27.47;19.20;;;13.00;99.90;;;;;;5026647;28;20243;-51
2021/03/02 12:40:32;;;;;;;27.03;18.70;;;12.90;99.90;;;;;;5034798;28;20231;-46
2021/03/02 12:43:00;;;;;;;26.20;18.33;;;13.10;99.90;;;;;;5040779;28;20247;-47
2021/03/02 12:45:29;;;;;;;26.73;18.47;;;13.00;99.90;;;;;;5027702;28;20705;-47
2021/03/02 12:47:57;;;;;;;26.97;19.20;;;13.20;99.90;;;;;;5035024;28;20733;-47
2021/03/02 12:50:25;;;;;;;26.77;18.83;;;13.10;99.90;;;;;;5034116;28;20676;-46
2021/03/02 12:52:53;;;;;;;28.67;19.30;;;13.00;99.90;;;;;;5034883;28;20296;-47